Terminal Aerodrome Forecast
Issued by NWS Louisville, KY

Home | Current Version | Previous Version | Text Only | Print | Product List | Glossary On
Versions: 1 2 3 4 5 6 7 8 9 10 11 12 13 14 15
527
FTUS43 KLMK 241720
TAFLEX
TAF
KLEX 241720Z 2418/2518 22007KT P6SM BKN050
     FM250100 19003KT P6SM FEW250
     FM251400 24007KT P6SM FEW250=

USA.gov is the U.S. government's official web portal to all federal, state and local government web resources and services.